Time;durP1;ratioP1;P1;durP2;ratioP2;P2;SDS_P1;SDS_P2;PMS_P1;PMS_P2;Temp;Humidity;BMP_temperature;BMP_pressure;BME280_temperature;BME280_humidity;BME280_pressure;Samples;Min_cycle;Max_cycle;Signal;HPM_P1;HPM_P2
2021/06/20 00:01:13;;;;;;;;;;;21.30;99.90;;;;;;5076124;28;19919;-79
2021/06/20 00:03:39;;;;;;;;;;;21.30;99.90;;;;;;5075274;28;20430;-77
2021/06/20 00:06:05;;;;;;;;;;;21.30;99.90;;;;;;5075461;28;19908;-78
2021/06/20 00:08:33;;;;;;;;;;;21.30;99.90;;;;;;5076509;28;19952;-79
2021/06/20 00:10:59;;;;;;;;;;;21.40;99.90;;;;;;5059333;28;20234;-77
2021/06/20 00:13:24;;;;;;;;;;;21.40;99.90;;;;;;5061002;28;20002;-77
2021/06/20 00:15:51;;;;;;;;;;;21.40;99.90;;;;;;5082907;28;20439;-79
2021/06/20 00:18:23;;;;;;;;;;;21.40;99.90;;;;;;5083052;28;19923;-79
2021/06/20 00:20:48;;;;;;;;;;;21.40;99.90;;;;;;5077509;28;19991;-77
2021/06/20 00:23:14;;;;;;;;;;;21.40;99.90;;;;;;5075691;28;20410;-77
2021/06/20 00:25:39;;;;;;;;;;;21.40;99.90;;;;;;5079720;28;19972;-77
2021/06/20 00:28:05;;;;;;;;;;;21.40;99.90;;;;;;5080585;28;19931;-79
2021/06/20 00:30:31;;;;;;;;;;;21.40;99.90;;;;;;5078072;28;19909;-77
2021/06/20 00:32:57;;;;;;;;;;;21.30;99.90;;;;;;5076492;28;19974;-78
2021/06/20 00:35:23;;;;;;;;;;;21.40;99.90;;;;;;5082747;28;19915;-78
2021/06/20 00:37:49;;;;;;;;;;;21.40;99.90;;;;;;5058363;28;19908;-77
2021/06/20 00:40:15;;;;;;;;;;;21.40;99.90;;;;;;5081101;28;19908;-78
2021/06/20 00:42:41;;;;;;;;;;;21.30;99.90;;;;;;5058715;28;19905;-77
2021/06/20 00:45:07;;;;;;;;;;;21.30;99.90;;;;;;5075406;28;20311;-79
2021/06/20 00:47:33;;;;;;;;;;;21.20;99.90;;;;;;5078438;28;19908;-80
2021/06/20 00:49:58;;;;;;;;;;;21.30;99.90;;;;;;5093412;28;19900;-77
2021/06/20 00:52:24;;;;;;;;;;;21.20;99.90;;;;;;5079218;28;19897;-79
2021/06/20 00:54:49;;;;;;;;;;;21.20;99.90;;;;;;5063605;28;19908;-80
2021/06/20 00:57:16;;;;;;;;;;;21.10;99.90;;;;;;5061979;28;19904;-80
2021/06/20 00:59:42;;;;;;;;;;;21.10;99.90;;;;;;5061617;28;19908;-78
2021/06/20 01:02:08;;;;;;;;;;;21.10;99.90;;;;;;5078034;28;19905;-78
2021/06/20 01:04:33;;;;;;;;;;;21.10;99.90;;;;;;5079057;28;19958;-78
2021/06/20 01:06:59;;;;;;;;;;;21.10;99.90;;;;;;5079477;28;19975;-78
2021/06/20 01:09:24;;;;;;;;;;;21.10;99.90;;;;;;5077907;28;19904;-78
2021/06/20 01:11:50;;;;;;;;;;;21.10;99.90;;;;;;5067183;28;19905;-81
2021/06/20 01:14:15;;;;;;;;;;;21.00;99.90;;;;;;5059444;28;19909;-79
2021/06/20 01:16:41;;;;;;;;;;;21.00;99.90;;;;;;5056211;28;19967;-78
2021/06/20 01:19:06;;;;;;;;;;;21.00;99.90;;;;;;5055471;28;19999;-78
2021/06/20 01:21:32;;;;;;;;;;;20.90;99.90;;;;;;5058024;28;19909;-79
2021/06/20 01:23:57;;;;;;;;;;;20.90;99.90;;;;;;5058718;28;19915;-79
2021/06/20 01:26:23;;;;;;;;;;;20.90;99.90;;;;;;5057347;28;19908;-80
2021/06/20 01:29:02;;;;;;;;;;;20.90;99.90;;;;;;5076487;28;19904;-78
2021/06/20 01:31:27;;;;;;;;;;;20.90;99.90;;;;;;5073968;28;19913;-78
2021/06/20 01:33:53;;;;;;;;;;;20.90;99.90;;;;;;5074315;28;19913;-78
2021/06/20 01:36:18;;;;;;;;;;;20.90;99.90;;;;;;5061963;28;20058;-77
2021/06/20 01:38:44;;;;;;;;;;;20.90;99.90;;;;;;5053168;28;20384;-77
2021/06/20 01:41:09;;;;;;;;;;;20.90;99.90;;;;;;5063254;28;19958;-78
2021/06/20 01:43:35;;;;;;;;;;;20.90;99.90;;;;;;5076116;28;19912;-78
2021/06/20 01:46:00;;;;;;;;;;;20.90;99.90;;;;;;5074958;28;20341;-76
2021/06/20 01:48:26;;;;;;;;;;;21.00;99.90;;;;;;5075016;28;19947;-77
2021/06/20 01:50:51;;;;;;;;;;;21.00;99.90;;;;;;5074584;28;19911;-78
2021/06/20 01:53:17;;;;;;;;;;;21.10;99.90;;;;;;5074697;28;19908;-78
2021/06/20 01:55:44;;;;;;;;;;;21.10;99.90;;;;;;5077220;28;19908;-77
2021/06/20 01:58:12;;;;;;;;;;;21.10;99.90;;;;;;5076453;28;19904;-78
2021/06/20 02:00:39;;;;;;;;;;;21.00;99.90;;;;;;5079178;28;19904;-75
2021/06/20 02:03:09;;;;;;;;;;;21.00;99.90;;;;;;5060715;28;20368;-77
2021/06/20 02:05:34;;;;;;;;;;;21.00;99.90;;;;;;5081443;28;19904;-77
2021/06/20 02:08:00;;;;;;;;;;;21.00;99.90;;;;;;5075747;28;20357;-77
2021/06/20 02:10:25;;;;;;;;;;;21.00;99.90;;;;;;5052449;28;20284;-78
2021/06/20 02:12:52;;;;;;;;;;;21.00;99.90;;;;;;5077318;28;19908;-78
2021/06/20 02:15:17;;;;;;;;;;;21.00;99.90;;;;;;5078304;28;20265;-78
2021/06/20 02:17:44;;;;;;;;;;;21.00;99.90;;;;;;5077321;28;19912;-78
2021/06/20 02:20:10;;;;;;;;;;;21.00;99.90;;;;;;5079121;28;19909;-78
2021/06/20 02:22:38;;;;;;;;;;;21.00;99.90;;;;;;5061078;28;20308;-77
2021/06/20 02:25:04;;;;;;;;;;;21.10;99.90;;;;;;5079232;28;19915;-77
2021/06/20 02:27:30;;;;;;;;;;;21.10;99.90;;;;;;5080769;28;19912;-78
2021/06/20 02:29:56;;;;;;;;;;;21.10;99.90;;;;;;5062512;28;19912;-77
2021/06/20 02:32:22;;;;;;;;;;;21.10;99.90;;;;;;5077462;28;19919;-79
2021/06/20 02:34:48;;;;;;;;;;;21.10;99.90;;;;;;5065959;28;20281;-76
2021/06/20 02:37:14;;;;;;;;;;;21.00;99.90;;;;;;5066933;28;19909;-78
2021/06/20 02:39:39;;;;;;;;;;;21.10;99.90;;;;;;5066224;28;19974;-77
2021/06/20 02:42:05;;;;;;;;;;;21.00;99.90;;;;;;5070415;28;19908;-77
2021/06/20 02:44:31;;;;;;;;;;;21.10;99.90;;;;;;5081153;28;19909;-76
2021/06/20 02:47:01;;;;;;;;;;;21.00;99.90;;;;;;5061097;28;19912;-78
2021/06/20 02:49:27;;;;;;;;;;;21.00;99.90;;;;;;5080734;28;19908;-77
2021/06/20 02:51:53;;;;;;;;;;;21.00;99.90;;;;;;5079822;28;20340;-78
2021/06/20 02:54:18;;;;;;;;;;;20.90;99.90;;;;;;5080862;28;19944;-79
2021/06/20 02:56:44;;;;;;;;;;;20.90;99.90;;;;;;5079719;28;19908;-78
2021/06/20 02:59:09;;;;;;;;;;;20.80;99.90;;;;;;5075676;28;19954;-76
2021/06/20 03:01:35;;;;;;;;;;;20.80;99.90;;;;;;5076450;28;19911;-74
2021/06/20 03:04:55;;;;;;;12.68;5.60;;;20.80;99.90;;;;;;5130977;27;20432;-78
2021/06/20 03:07:21;;;;;;;15.40;6.18;;;20.90;99.90;;;;;;5089611;28;20448;-78
2021/06/20 03:09:47;;;;;;;13.55;6.00;;;21.00;99.90;;;;;;5103700;28;20385;-78
2021/06/20 03:12:13;;;;;;;12.00;5.28;;;21.00;99.90;;;;;;5094658;28;20444;-77
2021/06/20 03:14:40;;;;;;;13.35;5.80;;;21.10;99.90;;;;;;5086585;28;20386;-77
2021/06/20 03:17:07;;;;;;;14.05;6.03;;;21.10;99.90;;;;;;5088102;28;20399;-77
2021/06/20 03:19:34;;;;;;;18.10;6.15;;;21.30;99.90;;;;;;5084838;22;20519;-75
2021/06/20 03:22:01;;;;;;;16.30;5.63;;;21.40;99.90;;;;;;5067877;28;20476;-77
2021/06/20 03:24:32;;;;;;;12.15;5.00;;;21.50;99.90;;;;;;5067881;28;20401;-74
2021/06/20 03:26:57;;;;;;;9.90;5.13;;;21.60;99.90;;;;;;5068344;28;20413;-76
2021/06/20 03:29:23;;;;;;;9.23;5.20;;;21.60;99.90;;;;;;5068308;28;20404;-75
2021/06/20 03:31:50;;;;;;;12.93;4.85;;;21.70;99.90;;;;;;5049536;28;20396;-76
2021/06/20 03:34:15;;;;;;;14.80;5.13;;;21.70;99.90;;;;;;5067688;28;20480;-75
2021/06/20 03:36:41;;;;;;;9.60;4.80;;;21.60;99.90;;;;;;5050091;28;20447;-76
2021/06/20 03:39:07;;;;;;;8.80;4.50;;;21.60;99.90;;;;;;5067412;28;20421;-76
2021/06/20 03:41:32;;;;;;;6.70;4.00;;;21.60;96.50;;;;;;5067417;28;20745;-76
2021/06/20 03:43:58;;;;;;;4.90;3.90;;;21.50;92.80;;;;;;5067324;28;20913;-75
2021/06/20 03:46:24;;;;;;;5.77;3.50;;;21.50;94.40;;;;;;5067574;28;20393;-76
2021/06/20 03:48:49;;;;;;;7.95;3.72;;;21.50;92.80;;;;;;5067649;28;20385;-75
2021/06/20 03:51:15;;;;;;;10.80;3.60;;;21.50;93.10;;;;;;5049846;28;20432;-75
2021/06/20 03:53:43;;;;;;;4.90;3.70;;;21.50;92.20;;;;;;5067743;28;20389;-76
2021/06/20 03:56:09;;;;;;;6.80;3.80;;;21.40;93.30;;;;;;5068029;28;20526;-76
2021/06/20 03:58:35;;;;;;;5.27;3.63;;;21.30;91.40;;;;;;5049223;28;20492;-75
2021/06/20 04:01:00;;;;;;;6.80;3.50;;;21.30;91.80;;;;;;5068950;28;20407;-77
2021/06/20 04:03:26;;;;;;;3.85;2.85;;;21.20;92.40;;;;;;5068145;28;20478;-75
2021/06/20 04:05:51;;;;;;;8.23;3.40;;;21.10;93.30;;;;;;5068229;28;20380;-76
2021/06/20 04:08:17;;;;;;;9.05;3.50;;;21.10;92.70;;;;;;5067360;28;20435;-76
2021/06/20 04:10:43;;;;;;;5.55;3.40;;;21.10;93.20;;;;;;5067711;28;20389;-75
2021/06/20 04:13:08;;;;;;;5.70;3.10;;;21.10;93.80;;;;;;5051647;28;20487;-75
2021/06/20 04:15:35;;;;;;;6.03;3.22;;;21.10;92.80;;;;;;5057993;28;20386;-76
2021/06/20 04:18:00;;;;;;;8.00;3.77;;;21.00;93.60;;;;;;5036383;28;20512;-75
2021/06/20 04:20:27;;;;;;;5.37;3.10;;;21.10;93.40;;;;;;5054533;28;20397;-76
2021/06/20 04:22:52;;;;;;;3.92;3.30;;;21.10;93.30;;;;;;5053772;28;20777;-76
2021/06/20 04:25:18;;;;;;;6.97;3.10;;;21.20;92.00;;;;;;5036454;28;20393;-76
2021/06/20 04:27:45;;;;;;;4.72;3.10;;;21.20;90.70;;;;;;5054067;28;20390;-75
2021/06/20 04:30:13;;;;;;;5.40;3.00;;;21.40;85.50;;;;;;5054244;28;20377;-75
2021/06/20 04:32:40;;;;;;;6.47;2.83;;;21.60;84.40;;;;;;5053965;28;20396;-75
2021/06/20 04:35:06;;;;;;;6.45;3.50;;;21.80;80.70;;;;;;5053958;28;20378;-77
2021/06/20 04:37:32;;;;;;;5.93;3.33;;;21.90;77.90;;;;;;5054511;28;20389;-75
2021/06/20 04:39:58;;;;;;;3.83;2.80;;;22.00;78.70;;;;;;5053999;28;20381;-76
2021/06/20 04:42:32;;;;;;;5.53;3.00;;;22.00;78.30;;;;;;5054118;28;20385;-75
2021/06/20 04:44:58;;;;;;;5.20;3.40;;;22.00;77.50;;;;;;5056601;28;20394;-76
2021/06/20 04:47:26;;;;;;;8.15;3.80;;;21.90;78.80;;;;;;5053539;28;20373;-75
2021/06/20 04:49:52;;;;;;;5.45;3.20;;;22.00;78.90;;;;;;5054078;28;20477;-75
2021/06/20 04:52:18;;;;;;;5.60;2.90;;;22.00;78.00;;;;;;5052843;28;20385;-75
2021/06/20 04:54:51;;;;;;;8.43;2.90;;;22.10;77.50;;;;;;5052775;28;20391;-76
2021/06/20 04:57:27;;;;;;;4.97;2.78;;;22.30;75.50;;;;;;5052688;28;20385;-76
2021/06/20 04:59:55;;;;;;;5.28;2.95;;;22.40;75.80;;;;;;5052792;28;20389;-75
2021/06/20 05:02:21;;;;;;;9.75;2.60;;;22.50;72.20;;;;;;5034508;28;20396;-77
2021/06/20 05:04:48;;;;;;;4.80;2.70;;;22.70;71.10;;;;;;5052616;28;20438;-76
2021/06/20 05:07:14;;;;;;;12.40;3.08;;;23.00;68.00;;;;;;5052748;28;20929;-76
2021/06/20 05:09:43;;;;;;;6.88;2.80;;;23.20;62.50;;;;;;5052686;28;20476;-75
2021/06/20 05:12:10;;;;;;;7.63;2.80;;;23.20;58.60;;;;;;5036002;28;20488;-76
2021/06/20 05:14:43;;;;;;;5.53;2.50;;;23.20;58.90;;;;;;5052893;28;20390;-77
2021/06/20 05:17:09;;;;;;;6.28;2.50;;;23.30;55.70;;;;;;5052839;28;20385;-76
2021/06/20 05:19:34;;;;;;;4.70;2.53;;;23.30;56.70;;;;;;5052965;28;20381;-76
2021/06/20 05:22:00;;;;;;;3.83;2.72;;;23.30;52.70;;;;;;5052343;28;20722;-76
2021/06/20 05:24:26;;;;;;;6.90;3.00;;;23.30;54.00;;;;;;5051377;28;20437;-75
2021/06/20 05:26:51;;;;;;;4.43;2.95;;;23.20;54.50;;;;;;5051497;28;20412;-74
2021/06/20 05:29:17;;;;;;;6.55;2.70;;;23.10;53.80;;;;;;5052151;28;20378;-77
2021/06/20 05:31:43;;;;;;;6.73;3.00;;;23.10;53.70;;;;;;5051575;28;20416;-77
2021/06/20 05:34:08;;;;;;;6.38;3.15;;;23.10;53.30;;;;;;5051711;28;20400;-76
2021/06/20 05:36:34;;;;;;;4.60;2.90;;;23.20;50.10;;;;;;5052572;28;20405;-77
2021/06/20 05:39:00;;;;;;;7.80;2.92;;;23.20;53.20;;;;;;5052589;28;20424;-75
2021/06/20 05:41:27;;;;;;;3.83;2.90;;;23.20;53.30;;;;;;5052246;28;20754;-76
2021/06/20 05:43:56;;;;;;;7.60;3.20;;;23.10;54.10;;;;;;5051757;28;20773;-75
2021/06/20 05:46:22;;;;;;;4.93;3.38;;;23.00;53.50;;;;;;5041407;28;20495;-75
2021/06/20 05:48:49;;;;;;;9.83;3.23;;;22.90;54.00;;;;;;5015495;28;20416;-75
2021/06/20 05:51:15;;;;;;;5.55;3.45;;;22.90;55.30;;;;;;5049290;28;20472;-76
2021/06/20 05:53:41;;;;;;;5.00;3.15;;;22.80;56.30;;;;;;5051237;28;20488;-76
2021/06/20 05:56:06;;;;;;;8.60;3.70;;;22.80;55.20;;;;;;5035433;28;20509;-75
2021/06/20 05:58:32;;;;;;;4.75;3.30;;;22.80;57.30;;;;;;5034703;28;20401;-79
2021/06/20 06:00:58;;;;;;;4.10;3.17;;;22.80;54.90;;;;;;5052602;28;20475;-78
2021/06/20 06:03:24;;;;;;;5.17;3.43;;;22.60;56.90;;;;;;5034380;28;20502;-74
2021/06/20 06:05:49;;;;;;;4.45;3.35;;;22.70;55.80;;;;;;5044396;28;20393;-77
2021/06/20 06:08:15;;;;;;;4.53;3.90;;;22.70;55.30;;;;;;5053639;28;20451;-77
2021/06/20 06:10:40;;;;;;;6.70;3.20;;;22.60;55.40;;;;;;5060522;28;20436;-78
2021/06/20 06:13:06;;;;;;;6.07;3.47;;;22.70;54.80;;;;;;5051591;28;20392;-76
2021/06/20 06:15:32;;;;;;;5.43;3.00;;;22.80;51.40;;;;;;5041436;28;20402;-76
2021/06/20 06:17:58;;;;;;;4.65;3.10;;;23.00;51.20;;;;;;5053786;28;20396;-76
2021/06/20 06:20:25;;;;;;;7.90;3.17;;;23.10;49.10;;;;;;5048313;28;20440;-75
2021/06/20 06:22:51;;;;;;;5.82;3.22;;;23.20;50.10;;;;;;5040996;28;20792;-76
2021/06/20 06:25:17;;;;;;;6.68;3.67;;;23.30;47.30;;;;;;5050828;28;20476;-75
2021/06/20 06:27:44;;;;;;;6.57;3.40;;;23.30;47.40;;;;;;5033691;28;20432;-75
2021/06/20 06:30:11;;;;;;;4.82;2.92;;;23.30;46.10;;;;;;5053245;28;20393;-77
2021/06/20 06:32:42;;;;;;;3.40;3.10;;;23.30;47.30;;;;;;5059714;28;20494;-77
2021/06/20 06:35:09;;;;;;;4.57;3.15;;;23.20;47.50;;;;;;5041689;28;20394;-73
2021/06/20 06:37:35;;;;;;;3.35;2.75;;;23.30;46.90;;;;;;5046871;28;20404;-72
2021/06/20 06:40:03;;;;;;;5.65;3.28;;;23.40;45.70;;;;;;5049477;28;20412;-73
2021/06/20 06:42:29;;;;;;;6.35;3.30;;;23.40;46.30;;;;;;5052879;28;20709;-73
2021/06/20 06:44:56;;;;;;;6.30;3.40;;;23.50;44.80;;;;;;5070803;28;20788;-72
2021/06/20 06:47:23;;;;;;;3.00;2.70;;;23.60;45.10;;;;;;5052034;28;20477;-73
2021/06/20 06:49:49;;;;;;;6.50;3.00;;;23.60;43.10;;;;;;5066541;28;20483;-72
2021/06/20 06:52:15;;;;;;;4.85;3.20;;;23.60;42.80;;;;;;5053433;28;20395;-72
2021/06/20 06:54:41;;;;;;;2.85;2.60;;;23.50;43.60;;;;;;5053673;28;20442;-72
2021/06/20 06:57:06;;;;;;;4.68;3.08;;;23.60;44.20;;;;;;5053514;28;20492;-74
2021/06/20 06:59:32;;;;;;;3.93;3.10;;;23.70;43.80;;;;;;5053033;28;20443;-74
2021/06/20 07:01:58;;;;;;;4.70;2.90;;;23.70;42.00;;;;;;5051779;28;20400;-74
2021/06/20 07:04:23;;;;;;;4.57;2.70;;;23.70;41.20;;;;;;5045052;28;20459;-73
2021/06/20 07:06:49;;;;;;;4.30;3.00;;;23.60;40.30;;;;;;5057565;28;20380;-72
2021/06/20 07:09:15;;;;;;;3.65;2.78;;;23.50;41.30;;;;;;5068637;28;20395;-73
2021/06/20 07:11:41;;;;;;;4.38;2.90;;;23.30;42.30;;;;;;5063056;28;20398;-76
2021/06/20 07:14:07;;;;;;;3.00;2.80;;;23.20;41.50;;;;;;5050635;28;20750;-73
2021/06/20 07:16:32;;;;;;;4.67;2.80;;;23.10;40.90;;;;;;5054296;28;20395;-73
2021/06/20 07:18:58;;;;;;;4.50;2.90;;;22.80;42.30;;;;;;5033973;28;20429;-78
2021/06/20 07:21:25;;;;;;;4.93;2.67;;;22.90;44.40;;;;;;5034314;28;20495;-76
2021/06/20 07:23:51;;;;;;;9.63;5.53;;;23.10;42.70;;;;;;5032839;28;20410;-75
2021/06/20 07:26:16;;;;;;;5.57;2.87;;;23.40;41.60;;;;;;5055846;28;20405;-76
2021/06/20 07:28:42;;;;;;;6.07;2.50;;;23.60;39.20;;;;;;5035194;28;20488;-76
2021/06/20 07:31:08;;;;;;;5.20;2.70;;;23.90;38.00;;;;;;5049501;28;20436;-75
2021/06/20 07:33:34;;;;;;;2.95;2.38;;;23.90;37.30;;;;;;5036585;28;20988;-76
2021/06/20 07:36:00;;;;;;;2.90;2.50;;;23.90;34.70;;;;;;5056591;28;20392;-77
2021/06/20 07:38:26;;;;;;;3.80;2.30;;;23.90;34.30;;;;;;5054104;28;20393;-77
2021/06/20 07:40:52;;;;;;;5.72;2.40;;;23.90;35.40;;;;;;5052262;28;20949;-76
2021/06/20 07:43:21;;;;;;;2.60;2.40;;;23.90;33.10;;;;;;5051693;28;20421;-74
2021/06/20 07:45:47;;;;;;;3.28;2.22;;;24.10;31.90;;;;;;5034967;28;20402;-76
2021/06/20 07:48:12;;;;;;;5.37;2.20;;;24.20;29.70;;;;;;5053362;28;20462;-76
2021/06/20 07:50:38;;;;;;;3.00;2.03;;;24.10;30.70;;;;;;5039786;28;20441;-77
2021/06/20 07:53:04;;;;;;;2.83;2.40;;;24.00;32.30;;;;;;5058071;28;20412;-76
2021/06/20 07:55:30;;;;;;;3.63;2.40;;;24.10;31.90;;;;;;5059642;28;20385;-75
2021/06/20 07:57:55;;;;;;;4.57;2.40;;;24.20;31.20;;;;;;5039587;28;20396;-77
2021/06/20 08:00:22;;;;;;;4.88;2.47;;;24.30;32.00;;;;;;5056397;28;20398;-77
2021/06/20 08:02:48;;;;;;;5.87;2.90;;;24.30;32.70;;;;;;5036885;28;20925;-75
2021/06/20 08:05:15;;;;;;;4.30;2.50;;;24.30;33.30;;;;;;5037528;28;20393;-75
2021/06/20 08:07:41;;;;;;;4.57;2.20;;;24.20;32.60;;;;;;5037857;28;20420;-75
2021/06/20 08:10:07;;;;;;;3.30;2.30;;;24.10;33.50;;;;;;5058992;28;20405;-79
2021/06/20 08:12:33;;;;;;;7.00;2.70;;;23.90;35.00;;;;;;5040682;28;20397;-77
2021/06/20 08:14:59;;;;;;;5.07;2.40;;;23.90;33.50;;;;;;5057158;28;20389;-80
2021/06/20 08:17:25;;;;;;;3.67;2.22;;;23.90;34.10;;;;;;5045544;28;20913;-77
2021/06/20 08:19:51;;;;;;;3.20;2.10;;;23.80;32.30;;;;;;5064637;28;20403;-77
2021/06/20 08:22:18;;;;;;;2.50;2.30;;;23.70;33.00;;;;;;5068988;28;20427;-78
2021/06/20 08:24:44;;;;;;;2.83;2.10;;;23.80;32.70;;;;;;5037799;28;20479;-76
2021/06/20 08:27:12;;;;;;;2.80;2.25;;;24.00;30.80;;;;;;5057829;28;20390;-77
2021/06/20 08:29:38;;;;;;;6.75;1.92;;;24.20;29.90;;;;;;5051293;28;20397;-78
2021/06/20 08:32:04;;;;;;;5.10;2.40;;;24.20;29.70;;;;;;5037644;28;20390;-77
2021/06/20 08:34:32;;;;;;;5.47;2.20;;;24.20;28.90;;;;;;5054032;28;20405;-79
2021/06/20 08:36:58;;;;;;;2.30;2.00;;;24.20;29.10;;;;;;5055085;28;20413;-79
2021/06/20 08:39:31;;;;;;;5.95;2.70;;;24.30;28.50;;;;;;5038971;28;20925;-79
2021/06/20 08:42:02;;;;;;;3.40;1.98;;;24.50;28.20;;;;;;5033253;28;20405;-78
2021/06/20 08:44:30;;;;;;;2.00;1.90;;;24.50;27.60;;;;;;5049378;28;20504;-76
2021/06/20 08:46:57;;;;;;;6.78;2.08;;;24.40;27.60;;;;;;5063233;28;20421;-73
2021/06/20 08:49:24;;;;;;;4.88;2.03;;;24.40;25.80;;;;;;5042222;28;20978;-74
2021/06/20 08:51:52;;;;;;;5.30;2.20;;;24.40;25.90;;;;;;5039595;28;20889;-79
2021/06/20 08:54:19;;;;;;;3.60;1.80;;;24.40;25.90;;;;;;5057276;28;20408;-81
2021/06/20 08:56:47;;;;;;;4.38;2.00;;;24.50;25.00;;;;;;5025774;28;20746;-77
2021/06/20 08:59:14;;;;;;;3.85;1.60;;;24.60;25.00;;;;;;5018099;28;20914;-79
2021/06/20 09:01:41;;;;;;;2.75;1.65;;;24.90;24.40;;;;;;5038280;28;20391;-78
2021/06/20 09:04:07;;;;;;;1.75;1.65;;;25.20;23.60;;;;;;5022410;28;20407;-76
2021/06/20 09:06:32;;;;;;;3.80;2.00;;;25.50;23.30;;;;;;5040207;28;20480;-81
2021/06/20 09:09:01;;;;;;;3.20;1.90;;;25.70;22.40;;;;;;5048031;28;20399;-77
2021/06/20 09:11:28;;;;;;;3.63;2.15;;;26.10;22.40;;;;;;5059962;28;20406;-78
2021/06/20 09:14:07;;;;;;;2.10;1.70;;;26.10;20.50;;;;;;5038730;28;20400;-80
2021/06/20 09:16:35;;;;;;;3.30;1.60;;;26.20;20.60;;;;;;5035025;28;20399;-77
2021/06/20 09:19:01;;;;;;;3.35;1.60;;;26.30;17.90;;;;;;5035961;23;20527;-74
2021/06/20 09:21:27;;;;;;;2.10;1.80;;;26.20;17.90;;;;;;4996556;28;20485;-74
2021/06/20 09:23:59;;;;;;;2.22;1.60;;;26.40;17.60;;;;;;5003664;28;20487;-75
2021/06/20 09:26:36;;;;;;;2.93;2.00;;;26.50;17.90;;;;;;5006366;28;20427;-74
2021/06/20 09:29:03;;;;;;;6.40;1.60;;;26.60;17.60;;;;;;4995169;28;20504;-75
2021/06/20 09:31:49;;;;;;;4.63;1.60;;;26.50;16.80;;;;;;5008443;28;20411;-73
2021/06/20 09:34:16;;;;;;;2.77;2.03;;;26.30;17.70;;;;;;5011664;28;20404;-75
2021/06/20 09:36:42;;;;;;;2.72;2.33;;;26.30;17.30;;;;;;4996580;28;20399;-75
2021/06/20 09:39:25;;;;;;;2.40;1.60;;;26.30;17.90;;;;;;4997887;28;20465;-74
2021/06/20 09:42:01;;;;;;;2.67;1.47;;;26.30;17.60;;;;;;5011005;28;20407;-77
2021/06/20 09:44:41;;;;;;;3.85;1.65;;;26.20;17.50;;;;;;5008794;28;20411;-74
2021/06/20 09:47:09;;;;;;;2.83;1.60;;;26.20;16.00;;;;;;4997011;28;20397;-74
2021/06/20 09:49:36;;;;;;;11.90;1.48;;;26.40;14.20;;;;;;5011406;28;20800;-75
2021/06/20 09:52:02;;;;;;;4.60;1.90;;;26.40;14.80;;;;;;5012354;28;20389;-73
2021/06/20 09:54:30;;;;;;;1.70;1.50;;;26.60;13.90;;;;;;5011763;28;20393;-75
2021/06/20 09:56:56;;;;;;;2.50;1.50;;;26.60;14.60;;;;;;5010721;28;20484;-73
2021/06/20 09:59:33;;;;;;;3.20;1.75;;;26.30;13.90;;;;;;5012038;28;20443;-75
2021/06/20 10:02:12;;;;;;;2.10;1.52;;;26.00;14.50;;;;;;5002593;28;20925;-73
2021/06/20 10:04:40;;;;;;;3.60;1.40;;;26.00;15.00;;;;;;5008702;28;20427;-76
2021/06/20 10:07:08;;;;;;;1.70;1.60;;;26.20;14.10;;;;;;5011065;28;20420;-74
2021/06/20 10:09:36;;;;;;;4.10;1.50;;;26.80;13.50;;;;;;5014482;28;20487;-76
2021/06/20 10:12:04;;;;;;;3.80;1.70;;;27.10;12.40;;;;;;5010037;28;20397;-76
2021/06/20 10:14:30;;;;;;;2.60;1.50;;;26.90;12.10;;;;;;5009715;28;20412;-75
2021/06/20 10:17:10;;;;;;;2.20;1.30;;;26.80;11.60;;;;;;4992220;28;20385;-75
2021/06/20 10:19:41;;;;;;;4.10;1.70;;;26.60;12.70;;;;;;5006172;28;20416;-76
2021/06/20 10:22:09;;;;;;;2.50;1.83;;;26.70;13.00;;;;;;5007179;28;20396;-76
2021/06/20 10:24:52;;;;;;;3.40;1.50;;;26.60;13.00;;;;;;4992320;28;20594;-74
2021/06/20 10:27:33;;;;;;;2.50;1.70;;;26.60;13.40;;;;;;5003627;28;20400;-77
2021/06/20 10:30:01;;;;;;;3.30;1.80;;;26.70;13.50;;;;;;5012178;28;20868;-77
2021/06/20 10:32:35;;;;;;;2.35;1.63;;;26.60;13.40;;;;;;5011152;28;20463;-75
2021/06/20 10:35:03;;;;;;;4.70;1.70;;;26.60;13.60;;;;;;5008863;28;20397;-75
2021/06/20 10:37:38;;;;;;;1.67;1.55;;;26.60;13.80;;;;;;5011415;28;20388;-75
2021/06/20 10:40:17;;;;;;;2.55;1.75;;;26.80;14.30;;;;;;5013552;28;20396;-76
2021/06/20 10:42:43;;;;;;;4.90;1.90;;;26.90;13.10;;;;;;5011179;28;20441;-75
2021/06/20 10:45:10;;;;;;;1.70;1.60;;;26.70;13.70;;;;;;5011429;28;20485;-75
2021/06/20 10:47:45;;;;;;;2.90;1.75;;;26.20;14.30;;;;;;5016875;28;20451;-76
2021/06/20 10:50:14;;;;;;;2.20;2.00;;;25.70;15.20;;;;;;5010592;28;20401;-76
2021/06/20 10:52:41;;;;;;;3.45;2.00;;;25.50;16.30;;;;;;5008903;28;20400;-76
2021/06/20 10:55:10;;;;;;;2.00;1.80;;;25.70;16.20;;;;;;4998581;28;20483;-77
2021/06/20 10:58:14;;;;;;;3.92;2.30;;;26.20;16.00;;;;;;4991973;28;20383;-76
2021/06/20 11:00:39;;;;;;;3.78;1.48;;;26.60;15.00;;;;;;4999974;28;20401;-75
2021/06/20 11:03:26;;;;;;;2.05;1.50;;;26.90;14.30;;;;;;5010864;28;20467;-75
2021/06/20 11:05:57;;;;;;;1.90;1.80;;;26.90;13.40;;;;;;5010512;28;20396;-76
2021/06/20 11:08:30;;;;;;;2.40;1.60;;;27.10;14.00;;;;;;5000543;28;20395;-76
2021/06/20 11:11:11;;;;;;;2.77;1.60;;;27.50;13.30;;;;;;5009600;28;20381;-75
2021/06/20 11:13:39;;;;;;;2.25;1.90;;;27.50;12.90;;;;;;4993606;28;20403;-73
2021/06/20 11:16:13;;;;;;;3.60;1.70;;;27.80;13.40;;;;;;5005113;28;20400;-77
2021/06/20 11:18:41;;;;;;;2.10;1.48;;;28.00;12.80;;;;;;5002327;28;20469;-75
2021/06/20 11:21:07;;;;;;;4.63;1.60;;;27.80;11.70;;;;;;5008502;28;20427;-75
2021/06/20 11:23:33;;;;;;;4.00;1.90;;;27.40;12.70;;;;;;5004561;28;20900;-76
2021/06/20 11:26:02;;;;;;;3.00;1.77;;;27.30;12.50;;;;;;5003062;28;20401;-75
2021/06/20 11:28:29;;;;;;;3.30;1.80;;;27.30;12.70;;;;;;5014335;28;20423;-76
2021/06/20 11:31:09;;;;;;;10.57;2.30;;;27.30;13.00;;;;;;4996629;28;20444;-76
2021/06/20 11:33:37;;;;;;;2.05;1.85;;;27.30;13.70;;;;;;5010515;28;20841;-77
2021/06/20 11:36:03;;;;;;;2.17;1.70;;;27.50;12.90;;;;;;5017147;28;20428;-77
2021/06/20 11:38:36;;;;;;;1.80;1.70;;;27.50;12.80;;;;;;5004765;28;20838;-75
2021/06/20 11:41:17;;;;;;;4.50;1.80;;;27.70;13.10;;;;;;5014374;28;20499;-75
2021/06/20 11:44:16;;;;;;;1.83;1.60;;;27.70;13.70;;;;;;5001426;28;20887;-75
2021/06/20 11:46:43;;;;;;;2.33;1.90;;;27.80;12.70;;;;;;4986743;28;20488;-76
2021/06/20 11:49:17;;;;;;;5.07;2.00;;;27.90;12.70;;;;;;5012784;28;20397;-75
2021/06/20 11:51:44;;;;;;;2.80;2.40;;;28.30;11.30;;;;;;5005072;28;20458;-77
2021/06/20 11:54:28;;;;;;;4.00;1.70;;;28.40;12.00;;;;;;4998696;28;20406;-74
2021/06/20 11:57:06;;;;;;;1.60;1.50;;;28.20;11.30;;;;;;5004528;28;20399;-74
2021/06/20 11:59:33;;;;;;;4.70;2.20;;;28.20;12.10;;;;;;5013560;28;20397;-77
2021/06/20 12:02:00;;;;;;;2.10;2.00;;;28.30;11.50;;;;;;4999741;28;20430;-75
2021/06/20 12:04:29;;;;;;;5.10;2.50;;;28.40;10.70;;;;;;5012509;28;20400;-75
2021/06/20 12:06:55;;;;;;;2.80;2.60;;;28.40;11.50;;;;;;5010293;28;20810;-75
2021/06/20 12:09:22;;;;;;;4.00;2.65;;;28.40;10.80;;;;;;5014773;28;20926;-76
2021/06/20 12:11:56;;;;;;;3.78;2.25;;;28.50;11.00;;;;;;5008456;28;20585;-75
2021/06/20 12:14:25;;;;;;;3.80;2.92;;;28.60;10.80;;;;;;4995684;28;20406;-75
2021/06/20 12:16:52;;;;;;;2.00;1.80;;;28.70;10.90;;;;;;4996806;28;20390;-76
2021/06/20 12:19:19;;;;;;;1.60;1.50;;;29.10;10.30;;;;;;5015585;28;20412;-75
2021/06/20 12:21:47;;;;;;;3.80;1.50;;;29.50;9.20;;;;;;5047447;28;20385;-76
2021/06/20 12:24:13;;;;;;;2.67;1.50;;;29.30;8.60;;;;;;5015919;28;20901;-77
2021/06/20 12:26:48;;;;;;;3.35;1.98;;;29.10;9.80;;;;;;5016200;28;20373;-75
2021/06/20 12:29:14;;;;;;;2.20;1.90;;;29.30;9.20;;;;;;4997849;28;20394;-76
2021/06/20 12:31:40;;;;;;;2.47;1.40;;;29.10;10.00;;;;;;4997487;28;20390;-76
2021/06/20 12:34:09;;;;;;;2.00;1.70;;;29.10;10.40;;;;;;5013592;28;20385;-76
2021/06/20 12:36:35;;;;;;;1.60;1.50;;;29.00;9.90;;;;;;5014235;28;20463;-76
2021/06/20 12:39:03;;;;;;;2.03;1.75;;;29.00;10.00;;;;;;4995875;28;20410;-76
2021/06/20 12:41:29;;;;;;;5.50;1.93;;;28.90;10.30;;;;;;5005074;28;20862;-76
2021/06/20 12:44:04;;;;;;;2.10;1.90;;;29.00;10.00;;;;;;5013935;28;20413;-76
2021/06/20 12:46:42;;;;;;;1.70;1.60;;;29.30;9.20;;;;;;5013730;28;20476;-75
2021/06/20 12:49:13;;;;;;;1.70;1.50;;;29.10;9.50;;;;;;5013199;28;20411;-75
2021/06/20 12:51:40;;;;;;;2.45;1.73;;;28.90;9.30;;;;;;5013417;28;20385;-76
2021/06/20 12:54:09;;;;;;;3.55;1.80;;;28.80;9.60;;;;;;5012976;28;20412;-75
2021/06/20 12:56:36;;;;;;;1.70;1.55;;;29.00;10.10;;;;;;5013365;28;20392;-76
2021/06/20 12:59:01;;;;;;;2.53;1.63;;;29.20;8.40;;;;;;4995830;28;20448;-75
2021/06/20 13:01:28;;;;;;;2.00;1.80;;;29.20;8.70;;;;;;4992067;28;20418;-75
2021/06/20 13:04:05;;;;;;;1.92;1.73;;;29.20;8.70;;;;;;4992924;28;20407;-75
2021/06/20 13:06:34;;;;;;;3.78;1.80;;;29.60;7.80;;;;;;4992423;28;20502;-75
2021/06/20 13:08:59;;;;;;;1.70;1.40;;;29.90;6.70;;;;;;5018199;28;20416;-75